Hitachimaru — JD2063 — position and weather

sailwx.info

Track history (hours):
 
Tides and Currents Weather Stations Pressure Air Temp Water Temp Dewpoint Dewpoint Depression Visibility Wind Speed Wind Dir Waves Ship Positions

Hitachimaru

Last reported at 2016-Jul-29 18:33 UTC. Time now 2016-Jul-29 19:45 UTC.
Position N 34°01' E 134°60'.

Length 83 m; draft 4.7 m.

Type: Cargo ship. MMSI: 431301756.

Date/timePositionNaut miles runAvg speedWind from/ knotsBaromVisibWave heightAir tempDewpointWater temp
2016-Jul-29 18:33N 34°01' E 134°60'1211.8
2016-Jul-29 17:32N 34°13' E 134°58'1410.8
2016-Jul-29 16:14N 34°26' E 135°06'811.9
2016-Jul-29 15:33N 34°31' E 135°13'1110.7
2016-Jul-29 14:34N 34°36' E 135°25'3 1.2
2016-Jul-29 12:25N 34°34' E 135°27'0 0.0
2016-Jul-29 11:31N 34°34' E 135°27'0 0.0
2016-Jul-29 10:33N 34°34' E 135°27'1 0.2
2016-Jul-29 01:29N 34°35' E 135°27'1 0.2
2016-Jul-28 19:32N 34°34' E 135°27'0 0.0
2016-Jul-28 17:32N 34°34' E 135°27'0 0.0
2016-Jul-28 08:14N 34°34' E 135°27'1 0.9
2016-Jul-28 07:33N 34°35' E 135°27'1 0.3
2016-Jul-28 04:17N 34°35' E 135°28'0 0.0
2016-Jul-28 01:11N 34°35' E 135°28'0 0.1
2016-Jul-28 00:29N 34°35' E 135°28'0 0.0
2016-Jul-27 23:23N 34°35' E 135°28'0 0.0
2016-Jul-27 09:33N 34°35' E 135°28'5 4.7
2016-Jul-27 08:32N 34°36' E 135°22'6 5.9
2016-Jul-27 07:33N 34°40' E 135°27'0 0.0
2016-Jul-27 06:25N 34°40' E 135°27'0 0.0
2016-Jul-27 05:31N 34°40' E 135°27'0 0.0
2016-Jul-27 04:25N 34°40' E 135°27'0 0.0
2016-Jul-27 03:13N 34°40' E 135°27'0 0.0
2016-Jul-26 23:31N 34°40' E 135°27'0 0.0
2016-Jul-26 22:25N 34°40' E 135°27'0 0.0
2016-Jul-26 21:31N 34°40' E 135°27'0 0.0
2016-Jul-26 20:31N 34°40' E 135°27'0 0.0
2016-Jul-26 19:31N 34°40' E 135°27'0 0.0
2016-Jul-26 18:31N 34°40' E 135°27'0 0.0
2016-Jul-26 17:31N 34°40' E 135°27'0 0.0
2016-Jul-26 16:31N 34°40' E 135°27'0 0.0
2016-Jul-26 15:31N 34°40' E 135°27'0 0.0
2016-Jul-26 14:31N 34°40' E 135°27'0 0.0
2016-Jul-26 13:31N 34°40' E 135°27'0 0.0
2016-Jul-26 12:31N 34°40' E 135°27'0 0.0
2016-Jul-26 11:31N 34°40' E 135°27'0 0.0
2016-Jul-26 10:31N 34°40' E 135°27'0 0.0
2016-Jul-26 09:31N 34°40' E 135°27'0 0.0
2016-Jul-26 08:31N 34°40' E 135°27'6 6.2
2016-Jul-26 07:33N 34°37' E 135°21'4 0.5
2016-Jul-25 22:32N 34°32' E 135°23'1 0.5
2016-Jul-25 21:20N 34°32' E 135°22'0 0.0
2016-Jul-25 20:26N 34°32' E 135°22'0 0.0
2016-Jul-25 19:14N 34°32' E 135°22'6 8.6
2016-Jul-25 18:33N 34°29' E 135°16'1111.5
2016-Jul-25 17:33N 34°22' E 135°05'1110.7
2016-Jul-25 16:33N 34°12' E 134°60'241 9.5
2016-Jul-24 15:07N 35°09' E 139°44'712.2
2016-Jul-24 14:34N 35°15' E 139°46'1010.2
2016-Jul-24 13:33N 35°26' E 139°45'5 0.1
2016-Jul-23 04:31N 35°22' E 139°49'0 0.0
2016-Jul-23 03:32N 35°22' E 139°49'9 8.7
2016-Jul-23 02:33N 35°23' E 139°39'0 0.3
2016-Jul-23 01:33N 35°23' E 139°38'0 0.0
2016-Jul-23 00:33N 35°23' E 139°38'0 0.0
2016-Jul-22 23:33N 35°23' E 139°38'1 0.6
2016-Jul-22 22:34N 35°24' E 139°39'1 0.5
2016-Jul-22 21:31N 35°23' E 139°39'0 0.0
2016-Jul-22 20:31N 35°23' E 139°39'0 0.0
2016-Jul-22 19:31N 35°23' E 139°39'3 3.1
2016-Jul-22 18:34N 35°24' E 139°43'1211.5
2016-Jul-22 17:34N 35°32' E 139°53'9 8.7
2016-Jul-22 16:33N 35°40' E 139°57'0 0.0
2016-Jul-22 15:33N 35°40' E 139°57'0 0.0
2016-Jul-22 14:33N 35°40' E 139°57'2 1.6
2016-Jul-22 13:33N 35°39' E 139°58'2 1.7
2016-Jul-22 12:28N 35°37' E 139°58'0 0.0
2016-Jul-22 11:22N 35°37' E 139°58'0 0.0
2016-Jul-22 10:04N 35°37' E 139°58'0 0.0
2016-Jul-22 09:28N 35°37' E 139°58'0 0.0
2016-Jul-22 08:28N 35°37' E 139°58'4 4.6
2016-Jul-22 07:33N 35°41' E 139°57'0 0.0
2016-Jul-22 05:33N 35°41' E 139°57'0 0.0
2016-Jul-22 04:33N 35°41' E 139°57'0 0.0
2016-Jul-22 03:21N 35°41' E 139°57'0 0.0
2016-Jul-22 02:27N 35°41' E 139°57'1 0.8
2016-Jul-22 01:34N 35°41' E 139°58'9 9.1
2016-Jul-22 00:33N 35°32' E 139°54'1010.4
2016-Jul-21 23:33N 35°24' E 139°46'9 9.5
2016-Jul-21 22:33N 35°14' E 139°47'1111.3
2016-Jul-21 21:33N 35°03' E 139°44'242 9.5
2016-Jul-20 20:12N 34°08' E 134°58'913.7
2016-Jul-20 19:33N 34°17' E 134°58'1212.3
2016-Jul-20 18:34N 34°26' E 135°07'1212.3
2016-Jul-20 17:33N 34°34' E 135°19'6 6.0
2016-Jul-20 16:29N 34°34' E 135°27'0 0.0
2016-Jul-19 21:30N 34°34' E 135°27'0 0.0
2016-Jul-19 20:30N 34°34' E 135°27'0 0.0
2016-Jul-19 19:30N 34°34' E 135°27'  
Track history (hours):
 
Tides and Currents Weather Stations Pressure Air Temp Water Temp Dewpoint Dewpoint Depression Visibility Wind Speed Wind Dir Waves Ship Positions

Hitachimaru

Last reported at 2016-Jul-29 18:33 UTC. Time now 2016-Jul-29 19:45 UTC.
Position N 34°01' E 134°60'.

Length 83 m; draft 4.7 m.

Type: Cargo ship. MMSI: 431301756.

Date/timePositionNaut miles runAvg speedWind from/ knotsBaromVisibWave heightAir tempDewpointWater temp
2016-Jul-29 18:33N 34°01' E 134°60'1211.8
2016-Jul-29 17:32N 34°13' E 134°58'1410.8
2016-Jul-29 16:14N 34°26' E 135°06'811.9
2016-Jul-29 15:33N 34°31' E 135°13'1110.7
2016-Jul-29 14:34N 34°36' E 135°25'3 1.2
2016-Jul-29 12:25N 34°34' E 135°27'0 0.0
2016-Jul-29 11:31N 34°34' E 135°27'0 0.0
2016-Jul-29 10:33N 34°34' E 135°27'1 0.2
2016-Jul-29 01:29N 34°35' E 135°27'1 0.2
2016-Jul-28 19:32N 34°34' E 135°27'0 0.0
2016-Jul-28 17:32N 34°34' E 135°27'0 0.0
2016-Jul-28 08:14N 34°34' E 135°27'1 0.9
2016-Jul-28 07:33N 34°35' E 135°27'1 0.3
2016-Jul-28 04:17N 34°35' E 135°28'0 0.0
2016-Jul-28 01:11N 34°35' E 135°28'0 0.1
2016-Jul-28 00:29N 34°35' E 135°28'0 0.0
2016-Jul-27 23:23N 34°35' E 135°28'0 0.0
2016-Jul-27 09:33N 34°35' E 135°28'5 4.7
2016-Jul-27 08:32N 34°36' E 135°22'6 5.9
2016-Jul-27 07:33N 34°40' E 135°27'0 0.0
2016-Jul-27 06:25N 34°40' E 135°27'0 0.0
2016-Jul-27 05:31N 34°40' E 135°27'0 0.0
2016-Jul-27 04:25N 34°40' E 135°27'0 0.0
2016-Jul-27 03:13N 34°40' E 135°27'0 0.0
2016-Jul-26 23:31N 34°40' E 135°27'0 0.0
2016-Jul-26 22:25N 34°40' E 135°27'0 0.0
2016-Jul-26 21:31N 34°40' E 135°27'0 0.0
2016-Jul-26 20:31N 34°40' E 135°27'0 0.0
2016-Jul-26 19:31N 34°40' E 135°27'0 0.0
2016-Jul-26 18:31N 34°40' E 135°27'0 0.0
2016-Jul-26 17:31N 34°40' E 135°27'0 0.0
2016-Jul-26 16:31N 34°40' E 135°27'0 0.0
2016-Jul-26 15:31N 34°40' E 135°27'0 0.0
2016-Jul-26 14:31N 34°40' E 135°27'0 0.0
2016-Jul-26 13:31N 34°40' E 135°27'0 0.0
2016-Jul-26 12:31N 34°40' E 135°27'0 0.0
2016-Jul-26 11:31N 34°40' E 135°27'0 0.0
2016-Jul-26 10:31N 34°40' E 135°27'0 0.0
2016-Jul-26 09:31N 34°40' E 135°27'0 0.0
2016-Jul-26 08:31N 34°40' E 135°27'6 6.2
2016-Jul-26 07:33N 34°37' E 135°21'4 0.5
2016-Jul-25 22:32N 34°32' E 135°23'1 0.5
2016-Jul-25 21:20N 34°32' E 135°22'0 0.0
2016-Jul-25 20:26N 34°32' E 135°22'0 0.0
2016-Jul-25 19:14N 34°32' E 135°22'6 8.6
2016-Jul-25 18:33N 34°29' E 135°16'1111.5
2016-Jul-25 17:33N 34°22' E 135°05'1110.7
2016-Jul-25 16:33N 34°12' E 134°60'241 9.5
2016-Jul-24 15:07N 35°09' E 139°44'712.2
2016-Jul-24 14:34N 35°15' E 139°46'1010.2
2016-Jul-24 13:33N 35°26' E 139°45'5 0.1
2016-Jul-23 04:31N 35°22' E 139°49'0 0.0
2016-Jul-23 03:32N 35°22' E 139°49'9 8.7
2016-Jul-23 02:33N 35°23' E 139°39'0 0.3
2016-Jul-23 01:33N 35°23' E 139°38'0 0.0
2016-Jul-23 00:33N 35°23' E 139°38'0 0.0
2016-Jul-22 23:33N 35°23' E 139°38'1 0.6
2016-Jul-22 22:34N 35°24' E 139°39'1 0.5
2016-Jul-22 21:31N 35°23' E 139°39'0 0.0
2016-Jul-22 20:31N 35°23' E 139°39'0 0.0
2016-Jul-22 19:31N 35°23' E 139°39'3 3.1
2016-Jul-22 18:34N 35°24' E 139°43'1211.5
2016-Jul-22 17:34N 35°32' E 139°53'9 8.7
2016-Jul-22 16:33N 35°40' E 139°57'0 0.0
2016-Jul-22 15:33N 35°40' E 139°57'0 0.0
2016-Jul-22 14:33N 35°40' E 139°57'2 1.6
2016-Jul-22 13:33N 35°39' E 139°58'2 1.7
2016-Jul-22 12:28N 35°37' E 139°58'0 0.0
2016-Jul-22 11:22N 35°37' E 139°58'0 0.0
2016-Jul-22 10:04N 35°37' E 139°58'0 0.0
2016-Jul-22 09:28N 35°37' E 139°58'0 0.0
2016-Jul-22 08:28N 35°37' E 139°58'4 4.6
2016-Jul-22 07:33N 35°41' E 139°57'0 0.0
2016-Jul-22 05:33N 35°41' E 139°57'0 0.0
2016-Jul-22 04:33N 35°41' E 139°57'0 0.0
2016-Jul-22 03:21N 35°41' E 139°57'0 0.0
2016-Jul-22 02:27N 35°41' E 139°57'1 0.8
2016-Jul-22 01:34N 35°41' E 139°58'9 9.1
2016-Jul-22 00:33N 35°32' E 139°54'1010.4
2016-Jul-21 23:33N 35°24' E 139°46'9 9.5
2016-Jul-21 22:33N 35°14' E 139°47'1111.3
2016-Jul-21 21:33N 35°03' E 139°44'242 9.5
2016-Jul-20 20:12N 34°08' E 134°58'913.7
2016-Jul-20 19:33N 34°17' E 134°58'1212.3
2016-Jul-20 18:34N 34°26' E 135°07'1212.3
2016-Jul-20 17:33N 34°34' E 135°19'6 6.0
2016-Jul-20 16:29N 34°34' E 135°27'0 0.0
2016-Jul-19 21:30N 34°34' E 135°27'0 0.0
2016-Jul-19 20:30N 34°34' E 135°27'0 0.0
2016-Jul-19 19:30N 34°34' E 135°27'  

Dump ship's entire track history